sensor_id;sensor_type;location;lat;lon;timestamp;pressure;altitude;pressure_sealevel;temperature
12875;BMP180;6505;51.114;13.128;2022-12-05T00:01:50;99390.00;;;10.90
12875;BMP180;6505;51.114;13.128;2022-12-05T00:04:18;99394.00;;;10.80
12875;BMP180;6505;51.114;13.128;2022-12-05T00:06:46;99396.00;;;10.80
12875;BMP180;6505;51.114;13.128;2022-12-05T00:09:15;99404.00;;;10.90
12875;BMP180;6505;51.114;13.128;2022-12-05T00:11:44;99399.00;;;10.80
12875;BMP180;6505;51.114;13.128;2022-12-05T00:14:14;99393.00;;;10.80
12875;BMP180;6505;51.114;13.128;2022-12-05T00:16:43;99378.00;;;10.90
12875;BMP180;6505;51.114;13.128;2022-12-05T00:19:14;99400.00;;;10.80
12875;BMP180;6505;51.114;13.128;2022-12-05T00:21:42;99393.00;;;10.90
12875;BMP180;6505;51.114;13.128;2022-12-05T00:24:13;99393.00;;;10.80
12875;BMP180;6505;51.114;13.128;2022-12-05T00:26:42;99411.00;;;10.90
12875;BMP180;6505;51.114;13.128;2022-12-05T00:29:11;99406.00;;;10.90
12875;BMP180;6505;51.114;13.128;2022-12-05T00:31:40;99408.00;;;10.80
12875;BMP180;6505;51.114;13.128;2022-12-05T00:34:09;99405.00;;;10.90
12875;BMP180;6505;51.114;13.128;2022-12-05T00:36:38;99392.00;;;10.90
12875;BMP180;6505;51.114;13.128;2022-12-05T00:39:09;99419.00;;;10.90
12875;BMP180;6505;51.114;13.128;2022-12-05T00:41:37;99422.00;;;10.90
12875;BMP180;6505;51.114;13.128;2022-12-05T00:44:06;99428.00;;;10.90
12875;BMP180;6505;51.114;13.128;2022-12-05T00:46:35;99423.00;;;10.90
12875;BMP180;6505;51.114;13.128;2022-12-05T00:49:06;99427.00;;;10.90
12875;BMP180;6505;51.114;13.128;2022-12-05T00:51:37;99408.00;;;10.90
12875;BMP180;6505;51.114;13.128;2022-12-05T00:54:12;99416.00;;;10.80
12875;BMP180;6505;51.114;13.128;2022-12-05T00:56:40;99424.00;;;10.90
12875;BMP180;6505;51.114;13.128;2022-12-05T00:59:14;99419.00;;;10.80
12875;BMP180;6505;51.114;13.128;2022-12-05T01:01:45;99413.00;;;10.90
12875;BMP180;6505;51.114;13.128;2022-12-05T01:04:18;99412.00;;;10.80
12875;BMP180;6505;51.114;13.128;2022-12-05T01:06:47;99432.00;;;10.90
12875;BMP180;6505;51.114;13.128;2022-12-05T01:09:17;99411.00;;;10.80
12875;BMP180;6505;51.114;13.128;2022-12-05T01:11:47;99429.00;;;10.90
12875;BMP180;6505;51.114;13.128;2022-12-05T01:14:21;99424.00;;;10.80
12875;BMP180;6505;51.114;13.128;2022-12-05T01:16:52;99428.00;;;10.80
12875;BMP180;6505;51.114;13.128;2022-12-05T01:19:24;99422.00;;;10.80
12875;BMP180;6505;51.114;13.128;2022-12-05T01:21:54;99423.00;;;10.80
12875;BMP180;6505;51.114;13.128;2022-12-05T01:24:24;99428.00;;;10.80
12875;BMP180;6505;51.114;13.128;2022-12-05T01:26:53;99421.00;;;10.90
12875;BMP180;6505;51.114;13.128;2022-12-05T01:29:23;99421.00;;;10.80
12875;BMP180;6505;51.114;13.128;2022-12-05T01:31:52;99428.00;;;10.90
12875;BMP180;6505;51.114;13.128;2022-12-05T01:34:23;99417.00;;;10.90
12875;BMP180;6505;51.114;13.128;2022-12-05T01:36:51;99419.00;;;10.90
12875;BMP180;6505;51.114;13.128;2022-12-05T01:39:19;99425.00;;;10.80
12875;BMP180;6505;51.114;13.128;2022-12-05T01:41:49;99420.00;;;10.90
12875;BMP180;6505;51.114;13.128;2022-12-05T01:44:59;99415.00;;;10.80
12875;BMP180;6505;51.114;13.128;2022-12-05T01:47:31;99418.00;;;10.80
12875;BMP180;6505;51.114;13.128;2022-12-05T01:50:05;99426.00;;;10.80
12875;BMP180;6505;51.114;13.128;2022-12-05T01:52:34;99415.00;;;10.90
12875;BMP180;6505;51.114;13.128;2022-12-05T01:55:09;99410.00;;;10.80
12875;BMP180;6505;51.114;13.128;2022-12-05T01:57:39;99416.00;;;10.90
12875;BMP180;6505;51.114;13.128;2022-12-05T02:00:12;99416.00;;;10.80
12875;BMP180;6505;51.114;13.128;2022-12-05T02:02:47;99417.00;;;10.90
12875;BMP180;6505;51.114;13.128;2022-12-05T02:05:21;99417.00;;;10.90
12875;BMP180;6505;51.114;13.128;2022-12-05T02:07:51;99417.00;;;10.90
12875;BMP180;6505;51.114;13.128;2022-12-05T02:10:20;99421.00;;;10.90
12875;BMP180;6505;51.114;13.128;2022-12-05T02:12:49;99421.00;;;10.90
12875;BMP180;6505;51.114;13.128;2022-12-05T02:15:34;99416.00;;;10.90
12875;BMP180;6505;51.114;13.128;2022-12-05T02:18:21;99426.00;;;10.90
12875;BMP180;6505;51.114;13.128;2022-12-05T02:25:00;99429.00;;;10.80
12875;BMP180;6505;51.114;13.128;2022-12-05T02:27:59;99421.00;;;10.80
12875;BMP180;6505;51.114;13.128;2022-12-05T02:30:41;99422.00;;;10.80
12875;BMP180;6505;51.114;13.128;2022-12-05T02:33:20;99416.00;;;10.80
12875;BMP180;6505;51.114;13.128;2022-12-05T02:35:59;99422.00;;;10.80
12875;BMP180;6505;51.114;13.128;2022-12-05T02:38:37;99422.00;;;10.80
12875;BMP180;6505;51.114;13.128;2022-12-05T02:41:17;99423.00;;;10.80
12875;BMP180;6505;51.114;13.128;2022-12-05T02:43:54;99424.00;;;10.80
12875;BMP180;6505;51.114;13.128;2022-12-05T02:46:30;99418.00;;;10.80
12875;BMP180;6505;51.114;13.128;2022-12-05T02:49:04;99430.00;;;10.90
12875;BMP180;6505;51.114;13.128;2022-12-05T02:55:35;99417.00;;;10.80
12875;BMP180;6505;51.114;13.128;2022-12-05T02:58:10;99421.00;;;10.80
12875;BMP180;6505;51.114;13.128;2022-12-05T03:00:45;99416.00;;;10.80
12875;BMP180;6505;51.114;13.128;2022-12-05T03:03:18;99412.00;;;10.80
12875;BMP180;6505;51.114;13.128;2022-12-05T03:05:55;99408.00;;;10.80
12875;BMP180;6505;51.114;13.128;2022-12-05T03:08:31;99412.00;;;10.80
12875;BMP180;6505;51.114;13.128;2022-12-05T03:11:03;99415.00;;;10.90
12875;BMP180;6505;51.114;13.128;2022-12-05T03:13:38;99412.00;;;10.90
12875;BMP180;6505;51.114;13.128;2022-12-05T03:16:14;99405.00;;;10.90
12875;BMP180;6505;51.114;13.128;2022-12-05T03:18:48;99402.00;;;10.90
12875;BMP180;6505;51.114;13.128;2022-12-05T03:21:28;99402.00;;;10.90
12875;BMP180;6505;51.114;13.128;2022-12-05T03:24:02;99405.00;;;10.90
12875;BMP180;6505;51.114;13.128;2022-12-05T03:26:46;99405.00;;;10.90
12875;BMP180;6505;51.114;13.128;2022-12-05T03:29:30;99407.00;;;10.90
12875;BMP180;6505;51.114;13.128;2022-12-05T03:32:07;99408.00;;;10.90
12875;BMP180;6505;51.114;13.128;2022-12-05T03:34:53;99414.00;;;10.90
12875;BMP180;6505;51.114;13.128;2022-12-05T03:37:31;99414.00;;;10.90
12875;BMP180;6505;51.114;13.128;2022-12-05T03:40:10;99423.00;;;10.90
12875;BMP180;6505;51.114;13.128;2022-12-05T03:42:47;99429.00;;;10.90
12875;BMP180;6505;51.114;13.128;2022-12-05T03:45:23;99427.00;;;10.90
12875;BMP180;6505;51.114;13.128;2022-12-05T03:48:05;99421.00;;;10.90
12875;BMP180;6505;51.114;13.128;2022-12-05T03:50:38;99415.00;;;10.90
12875;BMP180;6505;51.114;13.128;2022-12-05T03:53:15;99419.00;;;10.90
12875;BMP180;6505;51.114;13.128;2022-12-05T03:55:56;99428.00;;;10.90
12875;BMP180;6505;51.114;13.128;2022-12-05T03:58:31;99440.00;;;10.90
12875;BMP180;6505;51.114;13.128;2022-12-05T04:01:04;99422.00;;;10.90
12875;BMP180;6505;51.114;13.128;2022-12-05T04:03:39;99430.00;;;10.90
12875;BMP180;6505;51.114;13.128;2022-12-05T04:06:17;99418.00;;;10.90
12875;BMP180;6505;51.114;13.128;2022-12-05T04:08:52;99429.00;;;10.90
12875;BMP180;6505;51.114;13.128;2022-12-05T04:11:24;99422.00;;;10.90
12875;BMP180;6505;51.114;13.128;2022-12-05T04:13:58;99428.00;;;10.90
12875;BMP180;6505;51.114;13.128;2022-12-05T04:16:35;99426.00;;;10.90
12875;BMP180;6505;51.114;13.128;2022-12-05T04:19:28;99429.00;;;10.90
12875;BMP180;6505;51.114;13.128;2022-12-05T04:22:21;99438.00;;;11.00
12875;BMP180;6505;51.114;13.128;2022-12-05T04:24:51;99432.00;;;11.00
12875;BMP180;6505;51.114;13.128;2022-12-05T04:27:47;99445.00;;;10.90
12875;BMP180;6505;51.114;13.128;2022-12-05T04:30:20;99447.00;;;10.90
12875;BMP180;6505;51.114;13.128;2022-12-05T04:32:54;99451.00;;;10.90
12875;BMP180;6505;51.114;13.128;2022-12-05T04:35:31;99441.00;;;10.90
12875;BMP180;6505;51.114;13.128;2022-12-05T04:38:09;99439.00;;;11.00
12875;BMP180;6505;51.114;13.128;2022-12-05T04:40:50;99441.00;;;11.00
12875;BMP180;6505;51.114;13.128;2022-12-05T04:43:22;99437.00;;;11.00
12875;BMP180;6505;51.114;13.128;2022-12-05T04:45:52;99432.00;;;11.00
12875;BMP180;6505;51.114;13.128;2022-12-05T04:48:23;99442.00;;;10.90
12875;BMP180;6505;51.114;13.128;2022-12-05T04:50:54;99440.00;;;11.00
12875;BMP180;6505;51.114;13.128;2022-12-05T04:53:28;99450.00;;;11.00
12875;BMP180;6505;51.114;13.128;2022-12-05T04:56:01;99453.00;;;11.00
12875;BMP180;6505;51.114;13.128;2022-12-05T04:58:31;99445.00;;;11.00
12875;BMP180;6505;51.114;13.128;2022-12-05T05:01:06;99448.00;;;11.00
12875;BMP180;6505;51.114;13.128;2022-12-05T05:03:41;99445.00;;;11.00
12875;BMP180;6505;51.114;13.128;2022-12-05T05:06:12;99448.00;;;11.00
12875;BMP180;6505;51.114;13.128;2022-12-05T05:08:49;99455.00;;;11.00
12875;BMP180;6505;51.114;13.128;2022-12-05T05:11:21;99459.00;;;11.00
12875;BMP180;6505;51.114;13.128;2022-12-05T05:13:50;99457.00;;;11.00
12875;BMP180;6505;51.114;13.128;2022-12-05T05:16:25;99456.00;;;11.00
12875;BMP180;6505;51.114;13.128;2022-12-05T05:18:55;99450.00;;;10.90
12875;BMP180;6505;51.114;13.128;2022-12-05T05:21:26;99468.00;;;11.00
12875;BMP180;6505;51.114;13.128;2022-12-05T05:23:56;99468.00;;;11.00
12875;BMP180;6505;51.114;13.128;2022-12-05T05:26:27;99456.00;;;11.00
12875;BMP180;6505;51.114;13.128;2022-12-05T05:28:57;99452.00;;;11.00
12875;BMP180;6505;51.114;13.128;2022-12-05T05:31:25;99457.00;;;11.00
12875;BMP180;6505;51.114;13.128;2022-12-05T05:33:55;99463.00;;;11.00
12875;BMP180;6505;51.114;13.128;2022-12-05T05:36:26;99466.00;;;11.00
12875;BMP180;6505;51.114;13.128;2022-12-05T05:38:59;99471.00;;;11.00
12875;BMP180;6505;51.114;13.128;2022-12-05T05:41:30;99474.00;;;11.00
12875;BMP180;6505;51.114;13.128;2022-12-05T05:43:59;99478.00;;;11.10
12875;BMP180;6505;51.114;13.128;2022-12-05T05:46:29;99484.00;;;11.10
12875;BMP180;6505;51.114;13.128;2022-12-05T05:48:58;99478.00;;;11.10
12875;BMP180;6505;51.114;13.128;2022-12-05T05:51:27;99483.00;;;11.10
12875;BMP180;6505;51.114;13.128;2022-12-05T05:53:58;99495.00;;;11.10
12875;BMP180;6505;51.114;13.128;2022-12-05T05:56:27;99489.00;;;11.10
12875;BMP180;6505;51.114;13.128;2022-12-05T05:58:58;99499.00;;;11.10
12875;BMP180;6505;51.114;13.128;2022-12-05T06:01:27;99501.00;;;11.10
12875;BMP180;6505;51.114;13.128;2022-12-05T06:03:56;99490.00;;;11.10
12875;BMP180;6505;51.114;13.128;2022-12-05T06:06:25;99486.00;;;11.10
12875;BMP180;6505;51.114;13.128;2022-12-05T06:08:53;99503.00;;;11.10
12875;BMP180;6505;51.114;13.128;2022-12-05T06:11:25;99494.00;;;11.10
12875;BMP180;6505;51.114;13.128;2022-12-05T06:13:55;99483.00;;;11.10
12875;BMP180;6505;51.114;13.128;2022-12-05T06:16:24;99503.00;;;11.10
12875;BMP180;6505;51.114;13.128;2022-12-05T06:18:53;99511.00;;;11.10
12875;BMP180;6505;51.114;13.128;2022-12-05T06:21:22;99505.00;;;11.10
12875;BMP180;6505;51.114;13.128;2022-12-05T06:23:56;99523.00;;;11.10
12875;BMP180;6505;51.114;13.128;2022-12-05T06:26:26;99525.00;;;11.10
12875;BMP180;6505;51.114;13.128;2022-12-05T06:28:54;99524.00;;;11.10
12875;BMP180;6505;51.114;13.128;2022-12-05T06:31:23;99526.00;;;11.10
12875;BMP180;6505;51.114;13.128;2022-12-05T06:33:59;99527.00;;;11.10
12875;BMP180;6505;51.114;13.128;2022-12-05T06:36:29;99541.00;;;11.10
12875;BMP180;6505;51.114;13.128;2022-12-05T06:38:59;99531.00;;;11.10
12875;BMP180;6505;51.114;13.128;2022-12-05T06:41:28;99533.00;;;11.10
12875;BMP180;6505;51.114;13.128;2022-12-05T06:43:57;99537.00;;;11.10
12875;BMP180;6505;51.114;13.128;2022-12-05T06:46:29;99547.00;;;11.10
12875;BMP180;6505;51.114;13.128;2022-12-05T06:48:58;99551.00;;;11.10
12875;BMP180;6505;51.114;13.128;2022-12-05T06:51:26;99553.00;;;11.10
12875;BMP180;6505;51.114;13.128;2022-12-05T06:53:56;99551.00;;;11.10
12875;BMP180;6505;51.114;13.128;2022-12-05T06:56:24;99552.00;;;11.10
12875;BMP180;6505;51.114;13.128;2022-12-05T06:58:53;99566.00;;;11.10
12875;BMP180;6505;51.114;13.128;2022-12-05T07:01:23;99554.00;;;11.10
12875;BMP180;6505;51.114;13.128;2022-12-05T07:04:11;99544.00;;;11.10
12875;BMP180;6505;51.114;13.128;2022-12-05T07:06:40;99535.00;;;11.10
12875;BMP180;6505;51.114;13.128;2022-12-05T07:09:18;99555.00;;;11.10
12875;BMP180;6505;51.114;13.128;2022-12-05T07:11:48;99555.00;;;11.10
12875;BMP180;6505;51.114;13.128;2022-12-05T07:14:17;99569.00;;;11.10
12875;BMP180;6505;51.114;13.128;2022-12-05T07:17:05;99563.00;;;11.10
12875;BMP180;6505;51.114;13.128;2022-12-05T07:19:34;99562.00;;;11.10
12875;BMP180;6505;51.114;13.128;2022-12-05T07:22:02;99561.00;;;11.10
12875;BMP180;6505;51.114;13.128;2022-12-05T07:24:33;99576.00;;;11.10
12875;BMP180;6505;51.114;13.128;2022-12-05T07:27:01;99572.00;;;11.10
12875;BMP180;6505;51.114;13.128;2022-12-05T07:29:30;99564.00;;;11.10
12875;BMP180;6505;51.114;13.128;2022-12-05T07:31:59;99562.00;;;11.10
12875;BMP180;6505;51.114;13.128;2022-12-05T07:34:28;99569.00;;;11.10
12875;BMP180;6505;51.114;13.128;2022-12-05T07:36:58;99553.00;;;11.20
12875;BMP180;6505;51.114;13.128;2022-12-05T07:39:28;99564.00;;;11.20
12875;BMP180;6505;51.114;13.128;2022-12-05T07:41:56;99565.00;;;11.20
12875;BMP180;6505;51.114;13.128;2022-12-05T07:44:25;99573.00;;;11.20
12875;BMP180;6505;51.114;13.128;2022-12-05T07:46:54;99579.00;;;11.20
12875;BMP180;6505;51.114;13.128;2022-12-05T07:49:22;99568.00;;;11.20
12875;BMP180;6505;51.114;13.128;2022-12-05T07:51:50;99567.00;;;11.20
12875;BMP180;6505;51.114;13.128;2022-12-05T07:54:19;99575.00;;;11.20
12875;BMP180;6505;51.114;13.128;2022-12-05T07:56:47;99575.00;;;11.20
12875;BMP180;6505;51.114;13.128;2022-12-05T07:59:15;99573.00;;;11.20
12875;BMP180;6505;51.114;13.128;2022-12-05T08:01:43;99583.00;;;11.20
12875;BMP180;6505;51.114;13.128;2022-12-05T08:04:12;99575.00;;;11.20
12875;BMP180;6505;51.114;13.128;2022-12-05T08:06:42;99579.00;;;11.20
12875;BMP180;6505;51.114;13.128;2022-12-05T08:09:10;99596.00;;;11.20
12875;BMP180;6505;51.114;13.128;2022-12-05T08:11:38;99587.00;;;11.20
12875;BMP180;6505;51.114;13.128;2022-12-05T08:14:07;99580.00;;;11.20
12875;BMP180;6505;51.114;13.128;2022-12-05T08:16:35;99595.00;;;11.20
12875;BMP180;6505;51.114;13.128;2022-12-05T08:19:06;99592.00;;;11.20
12875;BMP180;6505;51.114;13.128;2022-12-05T08:21:35;99602.00;;;11.20
12875;BMP180;6505;51.114;13.128;2022-12-05T08:24:04;99597.00;;;11.20
12875;BMP180;6505;51.114;13.128;2022-12-05T08:26:34;99581.00;;;11.20
12875;BMP180;6505;51.114;13.128;2022-12-05T08:29:06;99594.00;;;11.20
12875;BMP180;6505;51.114;13.128;2022-12-05T08:31:39;99595.00;;;11.20
12875;BMP180;6505;51.114;13.128;2022-12-05T08:34:11;99598.00;;;11.20
12875;BMP180;6505;51.114;13.128;2022-12-05T08:36:41;99610.00;;;11.20
12875;BMP180;6505;51.114;13.128;2022-12-05T08:39:13;99595.00;;;11.20
12875;BMP180;6505;51.114;13.128;2022-12-05T08:41:42;99612.00;;;11.20
12875;BMP180;6505;51.114;13.128;2022-12-05T08:44:12;99610.00;;;11.20
12875;BMP180;6505;51.114;13.128;2022-12-05T08:46:45;99591.00;;;11.20
12875;BMP180;6505;51.114;13.128;2022-12-05T08:49:15;99595.00;;;11.20
12875;BMP180;6505;51.114;13.128;2022-12-05T08:51:45;99594.00;;;11.20
12875;BMP180;6505;51.114;13.128;2022-12-05T08:54:15;99602.00;;;11.20
12875;BMP180;6505;51.114;13.128;2022-12-05T08:56:43;99604.00;;;11.20
12875;BMP180;6505;51.114;13.128;2022-12-05T08:59:11;99614.00;;;11.30
12875;BMP180;6505;51.114;13.128;2022-12-05T09:01:39;99614.00;;;11.30
12875;BMP180;6505;51.114;13.128;2022-12-05T09:04:08;99611.00;;;11.30
12875;BMP180;6505;51.114;13.128;2022-12-05T09:06:39;99615.00;;;11.30
12875;BMP180;6505;51.114;13.128;2022-12-05T09:09:11;99617.00;;;11.30
12875;BMP180;6505;51.114;13.128;2022-12-05T09:11:42;99611.00;;;11.30
12875;BMP180;6505;51.114;13.128;2022-12-05T09:14:13;99618.00;;;11.30
12875;BMP180;6505;51.114;13.128;2022-12-05T09:16:44;99626.00;;;11.30
12875;BMP180;6505;51.114;13.128;2022-12-05T09:19:15;99619.00;;;11.30
12875;BMP180;6505;51.114;13.128;2022-12-05T09:21:44;99623.00;;;11.30
12875;BMP180;6505;51.114;13.128;2022-12-05T09:24:14;99628.00;;;11.30
12875;BMP180;6505;51.114;13.128;2022-12-05T09:26:42;99633.00;;;11.30
12875;BMP180;6505;51.114;13.128;2022-12-05T09:29:12;99625.00;;;11.30
12875;BMP180;6505;51.114;13.128;2022-12-05T09:31:46;99638.00;;;11.30
12875;BMP180;6505;51.114;13.128;2022-12-05T09:34:17;99630.00;;;11.30
12875;BMP180;6505;51.114;13.128;2022-12-05T09:36:46;99632.00;;;11.30
12875;BMP180;6505;51.114;13.128;2022-12-05T09:39:25;99626.00;;;11.30
12875;BMP180;6505;51.114;13.128;2022-12-05T09:42:08;99619.00;;;11.30
12875;BMP180;6505;51.114;13.128;2022-12-05T09:45:13;99634.00;;;11.30
12875;BMP180;6505;51.114;13.128;2022-12-05T09:47:50;99633.00;;;11.30
12875;BMP180;6505;51.114;13.128;2022-12-05T09:50:23;99632.00;;;11.30
12875;BMP180;6505;51.114;13.128;2022-12-05T09:53:03;99639.00;;;11.30
12875;BMP180;6505;51.114;13.128;2022-12-05T09:55:43;99642.00;;;11.30
12875;BMP180;6505;51.114;13.128;2022-12-05T09:58:25;99641.00;;;11.30
12875;BMP180;6505;51.114;13.128;2022-12-05T10:01:02;99640.00;;;11.30
12875;BMP180;6505;51.114;13.128;2022-12-05T10:03:40;99631.00;;;11.30
12875;BMP180;6505;51.114;13.128;2022-12-05T10:06:14;99615.00;;;11.30
12875;BMP180;6505;51.114;13.128;2022-12-05T10:09:16;99623.00;;;11.30
12875;BMP180;6505;51.114;13.128;2022-12-05T10:11:58;99624.00;;;11.30
12875;BMP180;6505;51.114;13.128;2022-12-05T10:14:41;99625.00;;;11.30
12875;BMP180;6505;51.114;13.128;2022-12-05T10:17:21;99631.00;;;11.30
12875;BMP180;6505;51.114;13.128;2022-12-05T10:19:55;99631.00;;;11.40
12875;BMP180;6505;51.114;13.128;2022-12-05T10:22:29;99637.00;;;11.40
12875;BMP180;6505;51.114;13.128;2022-12-05T10:25:05;99626.00;;;11.40
12875;BMP180;6505;51.114;13.128;2022-12-05T10:27:41;99624.00;;;11.40
12875;BMP180;6505;51.114;13.128;2022-12-05T10:30:14;99609.00;;;11.40
12875;BMP180;6505;51.114;13.128;2022-12-05T10:32:51;99632.00;;;11.40
12875;BMP180;6505;51.114;13.128;2022-12-05T10:35:22;99629.00;;;11.40
12875;BMP180;6505;51.114;13.128;2022-12-05T10:37:53;99625.00;;;11.40
12875;BMP180;6505;51.114;13.128;2022-12-05T10:40:33;99624.00;;;11.40
12875;BMP180;6505;51.114;13.128;2022-12-05T10:43:05;99619.00;;;11.40
12875;BMP180;6505;51.114;13.128;2022-12-05T10:45:41;99620.00;;;11.40
12875;BMP180;6505;51.114;13.128;2022-12-05T10:48:13;99613.00;;;11.50
12875;BMP180;6505;51.114;13.128;2022-12-05T10:50:43;99616.00;;;11.50
12875;BMP180;6505;51.114;13.128;2022-12-05T10:53:16;99609.00;;;11.50
12875;BMP180;6505;51.114;13.128;2022-12-05T10:55:47;99619.00;;;11.50
12875;BMP180;6505;51.114;13.128;2022-12-05T10:58:53;99614.00;;;11.40
12875;BMP180;6505;51.114;13.128;2022-12-05T11:01:24;99604.00;;;11.50
12875;BMP180;6505;51.114;13.128;2022-12-05T11:03:56;99614.00;;;11.50
12875;BMP180;6505;51.114;13.128;2022-12-05T11:06:28;99615.00;;;11.50
12875;BMP180;6505;51.114;13.128;2022-12-05T11:09:02;99613.00;;;11.50
12875;BMP180;6505;51.114;13.128;2022-12-05T11:11:33;99619.00;;;11.50
12875;BMP180;6505;51.114;13.128;2022-12-05T11:14:05;99618.00;;;11.50
12875;BMP180;6505;51.114;13.128;2022-12-05T11:16:37;99612.00;;;11.50
12875;BMP180;6505;51.114;13.128;2022-12-05T11:19:25;99616.00;;;11.50
12875;BMP180;6505;51.114;13.128;2022-12-05T11:21:54;99607.00;;;11.50
12875;BMP180;6505;51.114;13.128;2022-12-05T11:24:28;99621.00;;;11.50
12875;BMP180;6505;51.114;13.128;2022-12-05T11:26:58;99621.00;;;11.60
12875;BMP180;6505;51.114;13.128;2022-12-05T11:29:32;99616.00;;;11.50
12875;BMP180;6505;51.114;13.128;2022-12-05T11:32:02;99620.00;;;11.60
12875;BMP180;6505;51.114;13.128;2022-12-05T11:34:38;99620.00;;;11.50
12875;BMP180;6505;51.114;13.128;2022-12-05T11:37:13;99622.00;;;11.60
12875;BMP180;6505;51.114;13.128;2022-12-05T11:39:44;99625.00;;;11.60
12875;BMP180;6505;51.114;13.128;2022-12-05T11:42:32;99626.00;;;11.50
12875;BMP180;6505;51.114;13.128;2022-12-05T11:45:25;99631.00;;;11.50
12875;BMP180;6505;51.114;13.128;2022-12-05T11:48:12;99628.00;;;11.50
12875;BMP180;6505;51.114;13.128;2022-12-05T11:50:53;99639.00;;;11.50
12875;BMP180;6505;51.114;13.128;2022-12-05T11:53:52;99632.00;;;11.50
12875;BMP180;6505;51.114;13.128;2022-12-05T11:56:36;99629.00;;;11.50
12875;BMP180;6505;51.114;13.128;2022-12-05T11:59:41;99636.00;;;11.50
12875;BMP180;6505;51.114;13.128;2022-12-05T12:02:33;99620.00;;;11.50
12875;BMP180;6505;51.114;13.128;2022-12-05T12:05:17;99624.00;;;11.50
12875;BMP180;6505;51.114;13.128;2022-12-05T12:08:02;99634.00;;;11.50
12875;BMP180;6505;51.114;13.128;2022-12-05T12:10:47;99623.00;;;11.60
12875;BMP180;6505;51.114;13.128;2022-12-05T12:13:40;99624.00;;;11.60
12875;BMP180;6505;51.114;13.128;2022-12-05T12:16:19;99625.00;;;11.60
12875;BMP180;6505;51.114;13.128;2022-12-05T12:19:30;99630.00;;;11.50
12875;BMP180;6505;51.114;13.128;2022-12-05T12:22:18;99631.00;;;11.60
12875;BMP180;6505;51.114;13.128;2022-12-05T12:25:23;99623.00;;;11.60
12875;BMP180;6505;51.114;13.128;2022-12-05T12:28:06;99620.00;;;11.60
12875;BMP180;6505;51.114;13.128;2022-12-05T12:30:54;99619.00;;;11.60
12875;BMP180;6505;51.114;13.128;2022-12-05T12:33:33;99615.00;;;11.60
12875;BMP180;6505;51.114;13.128;2022-12-05T12:36:14;99626.00;;;11.50
12875;BMP180;6505;51.114;13.128;2022-12-05T12:39:17;99615.00;;;11.60
12875;BMP180;6505;51.114;13.128;2022-12-05T12:42:10;99610.00;;;11.60
12875;BMP180;6505;51.114;13.128;2022-12-05T12:45:16;99616.00;;;11.60
12875;BMP180;6505;51.114;13.128;2022-12-05T12:48:02;99611.00;;;11.60
12875;BMP180;6505;51.114;13.128;2022-12-05T12:50:38;99604.00;;;11.60
12875;BMP180;6505;51.114;13.128;2022-12-05T12:53:59;99606.00;;;11.60
12875;BMP180;6505;51.114;13.128;2022-12-05T12:56:40;99616.00;;;11.60
12875;BMP180;6505;51.114;13.128;2022-12-05T12:59:46;99610.00;;;11.60
12875;BMP180;6505;51.114;13.128;2022-12-05T13:02:24;99620.00;;;11.60
12875;BMP180;6505;51.114;13.128;2022-12-05T13:04:58;99618.00;;;11.60
12875;BMP180;6505;51.114;13.128;2022-12-05T13:07:35;99617.00;;;11.60
12875;BMP180;6505;51.114;13.128;2022-12-05T13:10:18;99616.00;;;11.70
12875;BMP180;6505;51.114;13.128;2022-12-05T13:12:51;99618.00;;;11.70
12875;BMP180;6505;51.114;13.128;2022-12-05T13:15:30;99626.00;;;11.70
12875;BMP180;6505;51.114;13.128;2022-12-05T13:18:02;99629.00;;;11.70
12875;BMP180;6505;51.114;13.128;2022-12-05T13:20:34;99631.00;;;11.70
12875;BMP180;6505;51.114;13.128;2022-12-05T13:23:04;99626.00;;;11.70
12875;BMP180;6505;51.114;13.128;2022-12-05T13:25:38;99626.00;;;11.70
12875;BMP180;6505;51.114;13.128;2022-12-05T13:28:24;99644.00;;;11.70
12875;BMP180;6505;51.114;13.128;2022-12-05T13:30:55;99626.00;;;11.80
12875;BMP180;6505;51.114;13.128;2022-12-05T13:33:33;99630.00;;;11.70
12875;BMP180;6505;51.114;13.128;2022-12-05T13:36:09;99637.00;;;11.70
12875;BMP180;6505;51.114;13.128;2022-12-05T13:38:58;99631.00;;;11.80
12875;BMP180;6505;51.114;13.128;2022-12-05T13:41:49;99631.00;;;11.70
12875;BMP180;6505;51.114;13.128;2022-12-05T13:44:40;99633.00;;;11.70
12875;BMP180;6505;51.114;13.128;2022-12-05T13:47:28;99632.00;;;11.70
12875;BMP180;6505;51.114;13.128;2022-12-05T13:50:08;99624.00;;;11.70
12875;BMP180;6505;51.114;13.128;2022-12-05T13:52:46;99626.00;;;11.70
12875;BMP180;6505;51.114;13.128;2022-12-05T13:55:24;99637.00;;;11.80
12875;BMP180;6505;51.114;13.128;2022-12-05T13:58:44;99647.00;;;11.80
12875;BMP180;6505;51.114;13.128;2022-12-05T14:01:44;99633.00;;;11.70
12875;BMP180;6505;51.114;13.128;2022-12-05T14:04:45;99645.00;;;11.70
12875;BMP180;6505;51.114;13.128;2022-12-05T14:07:41;99645.00;;;11.70
12875;BMP180;6505;51.114;13.128;2022-12-05T14:10:12;99641.00;;;11.80
12875;BMP180;6505;51.114;13.128;2022-12-05T14:12:52;99636.00;;;11.80
12875;BMP180;6505;51.114;13.128;2022-12-05T14:15:34;99644.00;;;11.80
12875;BMP180;6505;51.114;13.128;2022-12-05T14:18:12;99623.00;;;11.80
12875;BMP180;6505;51.114;13.128;2022-12-05T14:21:07;99615.00;;;11.80
12875;BMP180;6505;51.114;13.128;2022-12-05T14:24:00;99622.00;;;11.80
12875;BMP180;6505;51.114;13.128;2022-12-05T14:26:52;99615.00;;;11.80
12875;BMP180;6505;51.114;13.128;2022-12-05T14:29:36;99601.00;;;11.80
12875;BMP180;6505;51.114;13.128;2022-12-05T14:32:21;99619.00;;;11.80
12875;BMP180;6505;51.114;13.128;2022-12-05T14:34:56;99615.00;;;11.80
12875;BMP180;6505;51.114;13.128;2022-12-05T14:37:29;99614.00;;;11.80
12875;BMP180;6505;51.114;13.128;2022-12-05T14:39:59;99613.00;;;11.80
12875;BMP180;6505;51.114;13.128;2022-12-05T14:42:36;99617.00;;;11.80
12875;BMP180;6505;51.114;13.128;2022-12-05T14:45:26;99628.00;;;11.80
12875;BMP180;6505;51.114;13.128;2022-12-05T14:47:59;99610.00;;;11.80
12875;BMP180;6505;51.114;13.128;2022-12-05T14:50:44;99621.00;;;11.80
12875;BMP180;6505;51.114;13.128;2022-12-05T14:53:36;99630.00;;;11.80
12875;BMP180;6505;51.114;13.128;2022-12-05T14:56:16;99635.00;;;11.80
12875;BMP180;6505;51.114;13.128;2022-12-05T14:58:52;99630.00;;;11.80
12875;BMP180;6505;51.114;13.128;2022-12-05T15:01:26;99627.00;;;11.90
12875;BMP180;6505;51.114;13.128;2022-12-05T15:04:08;99630.00;;;11.90
12875;BMP180;6505;51.114;13.128;2022-12-05T15:06:49;99637.00;;;11.80